Charlotte Douglas International Airport
KCLT : now visible

Airfield :











YOU CAN JOIN US ON...

 
LOGIN :

Register | Disclaimer

   EN    FR    IT 

 









Legend :    VFR   Marginal VFR   IFR   Intensive IFR   Very Intensive IFR
Visi :
Ceiling :
>= 8 km
>= 3000ft
5 to 8 km
1000 to 3000 ft
1500m to 5 km
500 to 1000 ft
800 to 1500m
200 to 500 ft
< 800m
< 200 ft
Symbols :   Thunderstorms  Fog  Heavy snow  Heavy precipitations  Wind > 20 kt






- Airport Elevation : 748 ft
- IATA code : CLT


KCLT - Charlotte Douglas International

CURRENT METAR :
  • 121652Z 04016G21KT 10SM FEW012 BKN028 OVC050 10/07 A3028 RMK AO2 PK WND 05026/1635 RAE44 SLP251 P0001 T01000072

EXPIRED METARs :
  • 121552Z 06013G23KT 5SM -RA BR SCT011 BKN027 OVC048 10/08 A3028 RMK AO2 SLP251 P0008 T01000083
  • 121452Z 02012G18KT 3SM -RA BR BKN013 BKN019 OVC037 10/08 A3027 RMK AO2 SLP247 P0005 60014 T01000083 51025
  • 121443Z 02011KT 6SM RA BR FEW010 BKN015 OVC037 10/08 A3027 RMK AO2 P0003 T01000083
  • 121407Z 02014G19KT 6SM -RA BR BKN012 BKN017 OVC028 10/08 A3025 RMK AO2 P0001 T01000083

TAF KCLT
Valid from the 12 at 16:00 until the 13 at 18:00 UTC


121553Z 1216/1318 03016G22KT 3SM -SHRA BR SCT010 BKN020
FM121700 04012G18KT 6SM -SHRA BR OVC020
FM122100 04008KT P6SM VCSH OVC020
FM130200 05004KT P6SM SCT040 OVC080
FM131200 04007KT P6SM BKN120
KZTL FIR / North America



MET'MAP, your aeronautical weather chart ! - Copyright ORBIFLY December 2007 - Disclaimer

ORBIFLY MET'MAP TEAM :

Programming & Development : Alexandra Zaïnal
Concept & original design : Baudouin d'Aumeries
Assistance for programming : Marc-Olivier Méhu
Technical & hardware support : Manuel Goepfert

Contact : metmap@orbifly.com




SOURCES & CREDITS :

   NOAA       Earth
Advisory